Time;durP1;ratioP1;P1;durP2;ratioP2;P2;SDS_P1;SDS_P2;PMS_P1;PMS_P2;Temp;Humidity;BMP_temperature;BMP_pressure;BME280_temperature;BME280_humidity;BME280_pressure;Samples;Min_cycle;Max_cycle;Signal;HPM_P1;HPM_P2
2023/04/30 00:00:26;;;;;;;3.50;2.20;;;;;;;13.60;63.41;101055.54;107007;1269;25803;-51
2023/04/30 00:02:54;;;;;;;4.30;2.30;;;;;;;13.59;63.35;101056.09;106934;1267;25409;-50
2023/04/30 00:05:21;;;;;;;4.10;2.20;;;;;;;13.60;63.39;101055.04;106872;1267;26581;-50
2023/04/30 00:07:48;;;;;;;4.30;2.10;;;;;;;13.62;63.53;101058.45;106622;1271;25423;-50
2023/04/30 00:10:15;;;;;;;3.10;2.00;;;;;;;13.67;63.06;101060.41;107116;1272;26631;-49
2023/04/30 00:12:42;;;;;;;3.00;2.00;;;;;;;13.68;62.41;101060.73;106812;1274;25341;-49
2023/04/30 00:15:10;;;;;;;4.80;1.80;;;;;;;13.66;62.13;101052.40;107128;1274;25413;-50
2023/04/30 00:17:38;;;;;;;2.50;1.80;;;;;;;13.66;62.11;101053.96;107125;1274;25321;-50
2023/04/30 00:20:06;;;;;;;4.40;2.00;;;;;;;13.66;61.74;101050.12;107131;1272;22533;-51
2023/04/30 00:22:33;;;;;;;3.90;1.80;;;;;;;13.65;61.56;101047.38;106865;1272;23507;-50
2023/04/30 00:25:00;;;;;;;4.10;1.80;;;;;;;13.64;61.38;101043.94;107207;1271;25441;-50
2023/04/30 00:27:27;;;;;;;2.60;1.70;;;;;;;13.61;61.25;101038.95;107096;1267;23010;-50
2023/04/30 00:29:55;;;;;;;2.40;1.70;;;;;;;13.58;61.19;101038.52;107112;1267;24341;-50
2023/04/30 00:32:22;;;;;;;3.90;1.80;;;;;;;13.54;61.30;101034.11;106839;1267;23299;-50
2023/04/30 00:34:50;;;;;;;2.80;1.90;;;;;;;13.51;61.38;101036.98;107044;1271;22859;-50
2023/04/30 00:37:17;;;;;;;2.90;1.90;;;;;;;13.48;61.53;101033.93;107020;1267;24232;-51
2023/04/30 00:39:44;;;;;;;2.40;1.70;;;;;;;13.47;61.63;101034.15;107079;1253;22542;-50
2023/04/30 00:42:11;;;;;;;3.10;2.00;;;;;;;13.48;61.84;101032.89;107019;1267;25350;-49
2023/04/30 00:44:38;;;;;;;3.50;2.10;;;;;;;13.50;61.86;101033.17;107014;1260;22615;-49
2023/04/30 00:47:05;;;;;;;2.00;1.80;;;;;;;13.53;61.88;101032.92;107039;1268;25390;-50
2023/04/30 00:49:32;;;;;;;3.00;1.90;;;;;;;13.55;61.91;101037.73;107199;1268;26480;-49
2023/04/30 00:52:00;;;;;;;2.80;2.50;;;;;;;13.56;61.46;101033.00;107120;1268;25393;-49
2023/04/30 00:54:27;;;;;;;3.40;2.00;;;;;;;13.56;61.28;101032.67;107040;1269;25408;-49
2023/04/30 00:56:54;;;;;;;3.70;2.10;;;;;;;13.54;61.33;101032.73;106873;1271;24290;-49
2023/04/30 00:59:21;;;;;;;4.30;2.10;;;;;;;13.52;61.29;101034.70;106783;1269;22665;-49
2023/04/30 01:01:48;;;;;;;3.20;1.70;;;;;;;13.49;61.39;101036.17;106964;1267;25510;-49
2023/04/30 01:04:16;;;;;;;3.20;1.60;;;;;;;13.48;61.49;101032.36;107110;1267;25292;-49
2023/04/30 01:06:43;;;;;;;4.10;2.20;;;;;;;13.45;61.23;101036.10;107108;1268;25502;-50
2023/04/30 01:09:10;;;;;;;2.20;1.60;;;;;;;13.41;61.40;101034.84;106863;1271;26500;-50
2023/04/30 01:11:53;;;;;;;4.80;2.10;;;;;;;13.39;61.76;101034.21;107065;1267;25418;-50
2023/04/30 01:15:03;;;;;;;3.80;2.20;;;;;;;13.36;61.99;101033.59;107207;1267;25354;-49
2023/04/30 01:17:56;;;;;;;3.20;2.20;;;;;;;13.33;62.34;101035.60;106463;1277;25441;-49
2023/04/30 01:20:23;;;;;;;3.20;2.00;;;;;;;13.28;62.46;101031.39;106304;1279;25367;-49
2023/04/30 01:22:55;;;;;;;2.70;1.50;;;;;;;13.24;62.69;101028.38;106022;1282;25333;-50
2023/04/30 01:25:35;;;;;;;3.40;1.70;;;;;;;13.20;62.78;101034.41;106250;1271;25133;-50
2023/04/30 01:28:02;;;;;;;6.90;2.20;;;;;;;13.14;63.00;101034.77;105957;1280;22719;-49
2023/04/30 01:30:31;;;;;;;3.50;2.10;;;;;;;13.09;63.29;101033.66;105971;1281;25570;-49
2023/04/30 01:32:58;;;;;;;2.40;1.90;;;;;;;13.06;63.55;101033.20;105873;1279;25425;-50
2023/04/30 01:35:39;;;;;;;2.50;2.00;;;;;;;13.04;63.72;101029.59;105615;1279;25721;-50
2023/04/30 01:38:18;;;;;;;3.40;1.90;;;;;;;13.03;63.85;101028.21;105867;1279;22655;-50
2023/04/30 01:40:56;;;;;;;1.80;1.60;;;;;;;13.04;64.02;101020.71;105970;1279;25421;-50
2023/04/30 01:43:31;;;;;;;4.80;1.70;;;;;;;13.04;64.14;101024.55;105857;1279;22784;-51
2023/04/30 01:46:29;;;;;;;4.60;2.10;;;;;;;13.05;64.15;101025.57;105634;1287;25415;-50
2023/04/30 01:49:09;;;;;;;2.40;1.80;;;;;;;13.07;64.05;101020.66;106144;1283;25426;-51
2023/04/30 01:51:40;;;;;;;3.40;2.00;;;;;;;13.06;63.97;101018.04;106281;1279;22533;-50
2023/04/30 01:54:24;;;;;;;2.40;1.80;;;;;;;13.05;64.01;101019.13;106647;1273;24365;-50
2023/04/30 01:57:12;;;;;;;6.60;2.40;;;;;;;13.04;64.10;101017.77;106773;1272;24361;-50
2023/04/30 01:59:39;;;;;;;4.70;2.20;;;;;;;13.03;64.27;101014.79;107006;1268;25325;-50
2023/04/30 02:02:07;;;;;;;5.00;2.00;;;;;;;13.03;64.43;101012.71;107012;1267;25328;-49
2023/04/30 02:04:34;;;;;;;2.70;1.80;;;;;;;13.03;64.46;101009.23;107085;1267;25345;-49
2023/04/30 02:07:01;;;;;;;3.10;2.20;;;;;;;13.03;64.59;101002.77;107066;1269;25309;-49
2023/04/30 02:09:28;;;;;;;6.00;2.00;;;;;;;13.04;64.60;101008.17;107064;1267;25458;-50
2023/04/30 02:11:56;;;;;;;4.30;2.50;;;;;;;13.06;64.85;101006.41;106841;1267;25360;-49
2023/04/30 02:14:24;;;;;;;4.60;2.10;;;;;;;13.07;65.05;101004.27;106803;1267;24234;-50
2023/04/30 02:16:52;;;;;;;2.70;2.00;;;;;;;13.06;65.18;101007.25;107088;1267;22599;-49
2023/04/30 02:19:19;;;;;;;3.00;2.30;;;;;;;13.07;65.21;101009.33;106842;1267;25536;-52
2023/04/30 02:21:46;;;;;;;2.30;2.00;;;;;;;13.06;65.34;101008.48;107072;1267;25417;-49
2023/04/30 02:24:13;;;;;;;3.10;2.40;;;;;;;13.04;65.46;101004.17;106906;1271;25408;-49
2023/04/30 02:26:40;;;;;;;2.10;1.60;;;;;;;13.04;65.48;101008.52;107137;1267;25412;-50
2023/04/30 02:29:07;;;;;;;4.70;2.30;;;;;;;13.00;65.68;101004.44;107032;1269;22527;-50
2023/04/30 02:31:34;;;;;;;3.40;1.90;;;;;;;12.98;65.74;101001.72;107052;1267;24213;-51
2023/04/30 02:34:01;;;;;;;3.30;2.50;;;;;;;12.95;65.85;101000.59;107117;1268;24358;-50
2023/04/30 02:36:35;;;;;;;2.70;1.90;;;;;;;12.92;65.85;100997.19;107201;1267;25360;-50
2023/04/30 02:39:02;;;;;;;2.80;2.30;;;;;;;12.89;66.00;100996.05;107041;1267;25360;-50
2023/04/30 02:41:29;;;;;;;3.00;2.10;;;;;;;12.87;66.16;100995.73;106654;1267;25360;-50
2023/04/30 02:43:56;;;;;;;5.60;2.30;;;;;;;12.91;66.13;100996.51;107110;1267;24044;-50
2023/04/30 02:46:23;;;;;;;3.50;2.50;;;;;;;12.91;66.23;100997.19;107024;1267;25369;-50
2023/04/30 02:48:51;;;;;;;7.00;2.20;;;;;;;12.91;66.26;100994.25;107051;1267;22583;-50
2023/04/30 02:51:18;;;;;;;1.90;1.60;;;;;;;12.91;66.17;100993.70;107133;1267;25353;-49
2023/04/30 02:53:45;;;;;;;2.90;2.10;;;;;;;12.95;66.17;100996.20;106782;1270;25647;-51
2023/04/30 02:56:12;;;;;;;3.70;2.20;;;;;;;12.96;66.10;100994.62;106743;1271;24210;-50
2023/04/30 02:58:39;;;;;;;3.30;2.20;;;;;;;12.94;66.08;100991.19;107108;1268;25387;-50
2023/04/30 03:01:07;;;;;;;4.00;2.20;;;;;;;12.92;66.10;100991.42;107200;1267;22521;-50
2023/04/30 03:03:34;;;;;;;2.40;1.80;;;;;;;12.89;66.31;100987.68;107113;1267;25481;-50
2023/04/30 03:06:01;;;;;;;4.20;2.50;;;;;;;12.85;66.48;100993.19;106742;1272;25321;-50
2023/04/30 03:08:29;;;;;;;5.60;2.60;;;;;;;12.83;66.54;100987.49;106897;1269;25406;-50
2023/04/30 03:10:56;;;;;;;3.90;1.90;;;;;;;12.80;66.71;100990.73;106670;1270;26583;-51
2023/04/30 03:13:26;;;;;;;7.00;2.70;;;;;;;12.77;66.73;100989.05;106529;1272;24307;-50
2023/04/30 03:15:59;;;;;;;3.10;2.20;;;;;;;12.74;66.92;100990.03;106698;1270;25367;-51
2023/04/30 03:18:27;;;;;;;2.70;2.10;;;;;;;12.70;67.01;100989.78;106810;1277;23330;-50
2023/04/30 03:20:54;;;;;;;2.70;1.90;;;;;;;12.66;67.14;100990.73;106772;1277;25574;-50
2023/04/30 03:23:22;;;;;;;2.20;1.70;;;;;;;12.67;67.30;100990.23;106711;1277;25357;-50
2023/04/30 03:25:49;;;;;;;2.80;2.00;;;;;;;12.67;67.41;100992.13;106811;1270;25323;-50
2023/04/30 03:28:16;;;;;;;3.70;1.90;;;;;;;12.68;67.36;100990.34;106719;1270;25329;-50
2023/04/30 03:30:43;;;;;;;3.70;2.00;;;;;;;12.68;67.30;100988.77;106765;1269;23524;-50
2023/04/30 03:33:10;;;;;;;2.10;1.80;;;;;;;12.69;67.27;100990.66;106728;1276;25392;-50
2023/04/30 03:35:37;;;;;;;3.60;2.00;;;;;;;12.69;67.44;100990.50;106727;1270;25379;-50
2023/04/30 03:38:05;;;;;;;2.80;1.90;;;;;;;12.69;67.62;100988.40;106776;1258;24454;-50
2023/04/30 03:40:32;;;;;;;2.50;1.90;;;;;;;12.72;67.68;100993.89;106801;1272;22752;-49
2023/04/30 03:42:59;;;;;;;2.20;2.00;;;;;;;12.77;67.55;100994.29;107034;1268;25393;-49
2023/04/30 03:45:26;;;;;;;2.70;2.20;;;;;;;12.77;67.62;100992.36;106872;1268;25364;-49
2023/04/30 03:47:53;;;;;;;3.40;2.30;;;;;;;12.78;67.53;100993.38;106804;1268;25396;-49
2023/04/30 03:50:20;;;;;;;2.70;2.20;;;;;;;12.78;67.33;100995.28;107006;1271;25357;-49
2023/04/30 03:52:47;;;;;;;2.30;2.10;;;;;;;12.76;67.39;100998.32;106865;1271;25415;-49
2023/04/30 03:55:15;;;;;;;3.10;1.90;;;;;;;12.76;67.56;100994.83;107186;1267;25412;-49
2023/04/30 03:57:42;;;;;;;3.30;2.90;;;;;;;12.79;67.45;100995.27;106969;1268;25353;-49
2023/04/30 04:00:11;;;;;;;2.70;1.90;;;;;;;12.81;67.28;100998.36;106991;1267;24266;-49
2023/04/30 04:02:41;;;;;;;2.90;2.40;;;;;;;12.80;67.25;100993.48;106855;1267;25390;-49
2023/04/30 04:05:09;;;;;;;2.80;2.00;;;;;;;12.81;67.18;100992.96;106262;1272;1004195;-50
2023/04/30 04:07:36;;;;;;;2.70;2.10;;;;;;;12.82;67.22;100993.27;107043;1268;22764;-50
2023/04/30 04:10:04;;;;;;;2.90;2.00;;;;;;;12.85;67.26;100999.44;106838;1271;25406;-50
2023/04/30 04:12:31;;;;;;;3.00;2.20;;;;;;;12.89;67.09;101004.21;106851;1272;25343;-51
2023/04/30 04:14:58;;;;;;;2.90;2.20;;;;;;;12.94;67.03;101002.70;106858;1269;26708;-50
2023/04/30 04:17:26;;;;;;;3.00;2.10;;;;;;;12.98;66.75;101003.63;107117;1269;22517;-50
2023/04/30 04:19:53;;;;;;;2.90;2.50;;;;;;;13.01;66.62;101002.84;107028;1272;25485;-50
2023/04/30 04:22:20;;;;;;;5.10;2.50;;;;;;;13.02;66.53;101001.08;106820;1272;25351;-50
2023/04/30 04:24:48;;;;;;;2.30;1.80;;;;;;;13.04;66.56;101002.08;106979;1267;25399;-49
2023/04/30 04:27:19;;;;;;;3.20;1.90;;;;;;;13.08;66.52;101001.80;107071;1268;25546;-49
2023/04/30 04:29:46;;;;;;;2.40;2.00;;;;;;;13.11;66.15;101002.77;106823;1272;25418;-51
2023/04/30 04:32:14;;;;;;;3.40;2.00;;;;;;;13.06;66.42;101002.02;106945;1267;25305;-49
2023/04/30 04:34:42;;;;;;;2.30;1.70;;;;;;;13.12;66.25;100999.98;107060;1271;25363;-49
2023/04/30 04:37:09;;;;;;;2.60;2.10;;;;;;;13.14;66.14;101007.57;106754;1270;25381;-49
2023/04/30 04:39:37;;;;;;;2.20;1.40;;;;;;;13.20;65.91;101005.83;106793;1271;24209;-49
2023/04/30 04:42:04;;;;;;;2.80;2.00;;;;;;;13.25;65.78;101009.52;107016;1269;22569;-49
2023/04/30 04:44:32;;;;;;;1.90;1.80;;;;;;;13.29;65.69;101009.58;106653;1272;24010;-49
2023/04/30 04:46:59;;;;;;;2.50;1.80;;;;;;;13.29;65.56;101011.50;107042;1267;22995;-49
2023/04/30 04:49:26;;;;;;;2.80;2.10;;;;;;;13.23;65.58;101013.23;107057;1269;23865;-50
2023/04/30 04:51:53;;;;;;;2.20;2.00;;;;;;;13.20;65.48;101013.33;107083;1269;24208;-50
2023/04/30 04:54:21;;;;;;;2.70;1.90;;;;;;;13.16;65.64;101014.83;107070;1269;25533;-50
2023/04/30 04:56:48;;;;;;;2.60;2.10;;;;;;;13.16;65.78;101015.20;106979;1272;25453;-50
2023/04/30 04:59:17;;;;;;;2.70;2.10;;;;;;;13.16;65.74;101016.77;107159;1267;25354;-50
2023/04/30 05:01:44;;;;;;;2.90;2.20;;;;;;;13.15;65.95;101018.35;106301;1266;1003052;-51
2023/04/30 05:04:12;;;;;;;2.40;2.20;;;;;;;13.14;66.15;101020.27;106949;1269;27502;-51
2023/04/30 05:06:41;;;;;;;2.20;2.00;;;;;;;13.14;66.17;101018.55;107133;1269;25409;-51
2023/04/30 05:09:08;;;;;;;4.80;2.40;;;;;;;13.16;66.13;101022.85;106743;1271;23853;-49
2023/04/30 05:11:37;;;;;;;4.30;2.60;;;;;;;13.12;66.00;101021.03;107079;1267;25321;-49
2023/04/30 05:17:25;;;;;;;2.10;1.90;;;;;;;13.09;66.24;101023.91;103700;1303;544893;-49
2023/04/30 05:19:53;;;;;;;2.10;1.90;;;;;;;13.10;66.26;101023.52;106048;1282;22541;-49
2023/04/30 05:22:21;;;;;;;3.10;2.20;;;;;;;13.11;66.14;101026.14;105946;1279;22550;-49
2023/04/30 05:24:48;;;;;;;3.10;2.60;;;;;;;13.12;66.05;101022.27;106107;1282;24225;-48
2023/04/30 05:27:15;;;;;;;3.00;1.90;;;;;;;13.12;65.89;101024.71;105977;1280;22640;-49
2023/04/30 05:29:42;;;;;;;3.60;2.30;;;;;;;13.08;66.05;101023.75;105956;1280;27208;-50
2023/04/30 05:32:10;;;;;;;4.00;2.10;;;;;;;13.07;66.03;101027.96;106081;1278;217359;-50
2023/04/30 05:34:37;;;;;;;3.80;2.20;;;;;;;13.05;66.02;101028.54;106215;1279;22581;-49
2023/04/30 05:37:04;;;;;;;6.20;2.50;;;;;;;13.05;66.09;101028.02;106343;1282;22537;-49
2023/04/30 05:39:31;;;;;;;2.80;2.20;;;;;;;13.07;66.14;101029.34;105973;1277;22584;-50
2023/04/30 05:41:58;;;;;;;2.40;2.10;;;;;;;13.09;66.28;101032.80;106226;1279;25476;-50
2023/04/30 05:44:29;;;;;;;3.70;2.50;;;;;;;13.11;66.23;101031.88;106388;1279;24242;-49
2023/04/30 05:46:56;;;;;;;7.60;2.50;;;;;;;13.15;66.31;101031.77;106671;1273;25390;-50
2023/04/30 05:49:23;;;;;;;3.00;2.50;;;;;;;13.18;66.18;101035.69;106674;1273;24378;-50
2023/04/30 05:51:50;;;;;;;2.30;2.10;;;;;;;13.23;65.78;101034.50;106673;1275;24427;-50
2023/04/30 05:54:17;;;;;;;3.10;2.30;;;;;;;13.21;65.54;101036.98;106600;1267;22536;-49
2023/04/30 05:56:45;;;;;;;2.50;2.30;;;;;;;13.13;65.80;101039.47;106494;1278;24209;-51
2023/04/30 05:59:12;;;;;;;2.80;2.50;;;;;;;13.12;65.80;101041.23;106788;1272;24260;-51
2023/04/30 06:01:40;;;;;;;2.50;2.10;;;;;;;13.14;65.73;101041.52;106601;1273;22523;-49
2023/04/30 06:04:08;;;;;;;4.10;2.20;;;;;;;13.16;65.53;101042.00;106589;1279;22530;-49
2023/04/30 06:06:35;;;;;;;2.80;2.10;;;;;;;13.16;65.50;101038.52;106415;1272;24388;-49
2023/04/30 06:09:03;;;;;;;2.80;2.30;;;;;;;13.17;65.29;101040.41;106738;1272;25436;-49
2023/04/30 06:11:30;;;;;;;3.00;2.60;;;;;;;13.11;65.30;101044.26;106662;1278;24260;-49
2023/04/30 06:13:57;;;;;;;3.40;2.30;;;;;;;13.06;65.36;101045.05;106495;1275;24247;-48
2023/04/30 06:16:24;;;;;;;2.70;2.30;;;;;;;13.02;65.37;101043.57;106689;1275;24243;-49
2023/04/30 06:18:51;;;;;;;3.40;2.40;;;;;;;13.04;65.62;101041.80;106932;1263;22581;-48
2023/04/30 06:21:19;;;;;;;2.90;2.30;;;;;;;13.09;65.65;101046.20;106811;1266;22518;-49
2023/04/30 06:23:47;;;;;;;2.60;2.10;;;;;;;13.15;65.69;101045.70;106830;1266;25444;-48
2023/04/30 06:26:14;;;;;;;3.10;2.30;;;;;;;13.21;65.57;101044.14;106994;1272;24333;-49
2023/04/30 06:28:41;;;;;;;3.30;2.50;;;;;;;13.28;65.31;101047.42;106969;1269;22639;-50
2023/04/30 06:31:09;;;;;;;3.60;2.40;;;;;;;13.34;65.08;101048.98;106999;1271;25477;-49
2023/04/30 06:33:36;;;;;;;5.20;2.30;;;;;;;13.35;64.54;101051.04;106701;1268;24398;-50
2023/04/30 06:36:03;;;;;;;3.10;2.30;;;;;;;13.34;64.15;101053.67;106772;1272;22637;-50
2023/04/30 06:38:30;;;;;;;2.90;2.30;;;;;;;13.31;63.98;101049.60;106981;1272;24212;-50
2023/04/30 06:40:57;;;;;;;2.40;1.90;;;;;;;13.22;63.98;101055.77;106809;1270;22529;-50
2023/04/30 06:43:25;;;;;;;4.60;2.60;;;;;;;13.16;64.14;101053.86;106735;1271;22580;-50
2023/04/30 06:45:52;;;;;;;2.40;2.20;;;;;;;13.12;64.20;101056.24;106696;1268;24371;-49
2023/04/30 06:48:19;;;;;;;3.40;2.40;;;;;;;13.08;64.18;101059.29;107017;1267;22534;-49
2023/04/30 06:50:46;;;;;;;3.50;2.10;;;;;;;13.05;64.38;101057.80;107022;1267;24231;-49
2023/04/30 06:53:13;;;;;;;2.40;2.20;;;;;;;13.03;64.39;101060.96;106888;1270;22601;-49
2023/04/30 06:55:41;;;;;;;2.70;2.20;;;;;;;12.99;64.21;101061.05;106837;1269;22522;-49
2023/04/30 06:58:08;;;;;;;2.40;2.00;;;;;;;12.95;64.11;101060.14;107028;1268;22536;-50
2023/04/30 07:00:35;;;;;;;4.50;2.50;;;;;;;12.88;64.40;101060.15;106898;1269;22528;-50
2023/04/30 07:03:03;;;;;;;5.40;2.70;;;;;;;12.85;64.75;101062.99;106917;1267;24493;-50
2023/04/30 07:05:31;;;;;;;3.40;2.60;;;;;;;12.86;64.82;101062.28;107021;1275;22524;-50
2023/04/30 07:08:00;;;;;;;2.50;2.10;;;;;;;12.84;64.82;101062.49;106935;1272;22531;-49
2023/04/30 07:10:27;;;;;;;4.60;2.60;;;;;;;12.83;64.77;101060.46;106911;1270;24205;-49
2023/04/30 07:12:54;;;;;;;3.60;2.50;;;;;;;12.79;64.55;101064.73;107011;1269;24231;-50
2023/04/30 07:15:21;;;;;;;4.40;2.80;;;;;;;12.70;64.69;101065.48;106784;1271;24280;-50
2023/04/30 07:17:48;;;;;;;3.30;2.30;;;;;;;12.64;65.00;101066.33;107057;1267;24387;-50
2023/04/30 07:20:16;;;;;;;4.10;2.50;;;;;;;12.61;65.18;101065.20;107017;1267;22544;-50
2023/04/30 07:26:07;;;;;;;4.60;2.30;;;;;;;12.58;65.44;101066.13;103751;1298;545064;-49
2023/04/30 07:28:34;;;;;;;3.20;2.40;;;;;;;12.58;65.71;101066.84;105879;1282;24469;-49
2023/04/30 07:31:01;;;;;;;3.70;2.50;;;;;;;12.61;65.69;101070.41;105931;1282;22545;-49
2023/04/30 07:33:29;;;;;;;4.40;2.20;;;;;;;12.63;65.77;101070.02;106034;1284;22539;-49
2023/04/30 07:35:57;;;;;;;2.50;2.30;;;;;;;12.65;65.62;101070.47;105937;1282;24252;-49
2023/04/30 07:38:24;;;;;;;3.20;2.50;;;;;;;12.65;65.61;101069.60;105911;1267;25525;-49
2023/04/30 07:40:51;;;;;;;2.60;2.40;;;;;;;12.67;65.56;101073.06;106068;1278;213646;-49
2023/04/30 07:43:18;;;;;;;2.50;2.20;;;;;;;12.65;65.43;101069.25;105905;1277;24299;-50
2023/04/30 07:45:48;;;;;;;2.80;2.50;;;;;;;12.65;65.52;101069.44;105732;1287;24520;-49
2023/04/30 07:48:16;;;;;;;4.10;2.60;;;;;;;12.67;65.49;101072.72;106021;1279;22536;-49
2023/04/30 07:50:43;;;;;;;3.70;2.60;;;;;;;12.68;65.37;101070.58;106108;1284;24343;-50
2023/04/30 07:53:10;;;;;;;3.10;2.50;;;;;;;12.67;65.33;101070.96;106020;1281;25507;-50
2023/04/30 07:55:37;;;;;;;3.30;2.80;;;;;;;12.66;65.46;101072.20;106089;1279;22536;-49
2023/04/30 07:58:04;;;;;;;4.40;2.70;;;;;;;12.65;65.19;101074.83;106071;1279;24201;-50
2023/04/30 08:00:31;;;;;;;4.50;2.80;;;;;;;12.63;65.27;101072.95;106194;1278;22545;-50
2023/04/30 08:02:59;;;;;;;3.20;2.20;;;;;;;12.63;65.16;101076.98;106098;1262;25339;-49
2023/04/30 08:05:26;;;;;;;3.60;2.20;;;;;;;12.63;65.08;101077.85;106059;1282;24269;-49
2023/04/30 08:07:54;;;;;;;3.10;2.40;;;;;;;12.63;65.02;101079.75;106001;1279;25579;-49
2023/04/30 08:10:21;;;;;;;2.80;2.50;;;;;;;12.66;65.16;101076.91;106175;1279;22544;-50
2023/04/30 08:12:48;;;;;;;3.00;2.70;;;;;;;12.70;65.15;101073.67;107078;1278;24439;-50
2023/04/30 08:15:15;;;;;;;3.00;2.10;;;;;;;12.76;65.10;101074.90;106348;1279;25639;-51
2023/04/30 08:21:06;;;;;;;3.50;2.40;;;;;;;12.86;64.96;101080.90;104134;1305;545033;-50
2023/04/30 08:23:34;;;;;;;3.30;2.70;;;;;;;12.84;64.90;101081.48;106548;1276;22544;-50
2023/04/30 08:26:01;;;;;;;3.10;2.10;;;;;;;12.84;64.51;101082.70;106407;1276;25339;-50
2023/04/30 08:28:28;;;;;;;2.80;2.30;;;;;;;12.84;64.74;101088.64;106390;1269;24266;-51
2023/04/30 08:30:55;;;;;;;3.40;2.70;;;;;;;12.81;64.69;101088.88;106520;1267;22645;-50
2023/04/30 08:33:22;;;;;;;2.60;2.40;;;;;;;12.78;64.90;101091.73;106543;1276;22547;-49
2023/04/30 08:35:50;;;;;;;4.20;2.10;;;;;;;12.76;64.82;101090.92;106302;1276;647905;-49
2023/04/30 08:38:17;;;;;;;3.20;2.50;;;;;;;12.70;64.64;101091.42;106927;1272;24265;-50
2023/04/30 08:40:51;;;;;;;3.00;2.20;;;;;;;12.66;65.10;101087.52;106837;1257;22528;-50
2023/04/30 08:43:19;;;;;;;3.10;2.70;;;;;;;12.64;65.14;101089.33;106945;1273;23109;-50
2023/04/30 08:45:46;;;;;;;3.90;2.40;;;;;;;12.62;65.30;101088.66;106819;1257;22763;-50
2023/04/30 08:48:15;;;;;;;3.30;2.80;;;;;;;12.62;65.26;101086.92;107404;1272;25400;-49
2023/04/30 08:50:42;;;;;;;3.80;2.60;;;;;;;12.57;65.01;101085.48;107279;1269;22992;-49
2023/04/30 08:53:10;;;;;;;2.90;2.30;;;;;;;12.53;65.00;101084.20;107074;1273;22521;-50
2023/04/30 08:55:38;;;;;;;4.00;2.30;;;;;;;12.52;65.28;101092.76;107326;1272;22515;-49
2023/04/30 08:58:07;;;;;;;4.20;2.70;;;;;;;12.52;65.23;101090.49;106935;1269;22519;-49
2023/04/30 09:00:34;;;;;;;2.70;2.40;;;;;;;12.47;65.36;101087.48;106921;1273;22908;-49
2023/04/30 09:03:01;;;;;;;3.50;2.50;;;;;;;12.48;65.54;101086.77;106780;1273;22560;-50
2023/04/30 09:05:29;;;;;;;3.90;2.40;;;;;;;12.51;65.35;101087.73;106583;1257;22638;-50
2023/04/30 09:07:57;;;;;;;4.10;2.50;;;;;;;12.52;65.28;101091.19;106622;1273;24266;-49
2023/04/30 09:10:33;;;;;;;4.10;2.80;;;;;;;12.49;65.04;101090.56;106949;1263;25590;-49
2023/04/30 09:13:02;;;;;;;3.00;2.40;;;;;;;12.47;64.86;101091.48;106712;1267;22530;-50
2023/04/30 09:15:29;;;;;;;3.90;2.40;;;;;;;12.44;64.95;101089.63;106478;1273;22540;-50
2023/04/30 09:18:14;;;;;;;4.40;2.80;;;;;;;12.46;65.03;101088.38;106439;1273;22636;-49
2023/04/30 09:21:00;;;;;;;4.40;2.80;;;;;;;12.47;64.92;101090.77;106453;1273;22525;-49
2023/04/30 09:23:28;;;;;;;2.30;2.10;;;;;;;12.49;65.26;101091.08;106211;1274;25290;-49
2023/04/30 09:25:55;;;;;;;2.80;2.20;;;;;;;12.53;65.24;101088.55;106404;1273;22546;-49
2023/04/30 09:28:25;;;;;;;2.50;2.10;;;;;;;12.55;65.25;101088.67;106400;1256;23338;-49
2023/04/30 09:30:52;;;;;;;3.10;2.40;;;;;;;12.60;65.06;101090.81;106170;1271;25242;-49
2023/04/30 09:33:19;;;;;;;4.30;2.60;;;;;;;12.60;64.81;101087.67;106398;1279;25435;-49
2023/04/30 09:35:47;;;;;;;2.70;2.50;;;;;;;12.62;64.69;101087.98;106670;1273;22539;-49
2023/04/30 09:38:28;;;;;;;3.90;2.70;;;;;;;12.64;64.11;101089.99;106469;1274;24351;-49
2023/04/30 09:40:57;;;;;;;4.10;2.70;;;;;;;12.66;63.65;101085.60;106765;1273;22560;-49
2023/04/30 09:43:25;;;;;;;2.10;1.90;;;;;;;12.69;63.45;101089.02;106676;1276;22546;-49
2023/04/30 09:45:52;;;;;;;2.00;1.80;;;;;;;12.74;63.42;101089.59;106760;1276;22530;-49
2023/04/30 09:48:22;;;;;;;2.60;2.30;;;;;;;12.77;63.13;101084.96;106738;1273;23121;-50
2023/04/30 09:50:50;;;;;;;5.00;2.60;;;;;;;12.85;62.85;101086.19;106820;1273;24365;-49
2023/04/30 09:53:18;;;;;;;3.60;2.60;;;;;;;12.91;62.46;101090.89;106612;1273;22527;-49
2023/04/30 09:55:49;;;;;;;2.60;2.10;;;;;;;12.94;62.33;101091.48;106838;1272;22541;-49
2023/04/30 09:58:17;;;;;;;2.60;2.20;;;;;;;13.00;62.01;101093.95;106730;1273;22530;-48
2023/04/30 10:00:47;;;;;;;2.40;2.20;;;;;;;13.04;61.57;101093.51;106767;1276;22527;-48
2023/04/30 10:03:15;;;;;;;2.40;2.20;;;;;;;13.07;61.37;101098.67;106742;1273;25437;-49
2023/04/30 10:05:45;;;;;;;2.90;2.30;;;;;;;13.10;61.38;101095.65;106816;1271;22717;-49
2023/04/30 10:08:36;;;;;;;2.80;2.30;;;;;;;13.12;61.53;101096.14;106676;1276;22512;-48
2023/04/30 10:11:04;;;;;;;4.10;2.20;;;;;;;13.16;61.60;101090.97;106664;1273;24327;-49
2023/04/30 10:13:54;;;;;;;2.50;2.20;;;;;;;13.19;61.54;101095.94;106438;1277;24272;-48
2023/04/30 10:16:27;;;;;;;3.40;2.50;;;;;;;13.23;61.90;101098.80;106711;1273;24259;-48
2023/04/30 10:18:55;;;;;;;2.40;2.00;;;;;;;13.26;61.72;101097.31;106382;1272;22535;-49
2023/04/30 10:21:22;;;;;;;3.30;2.60;;;;;;;13.25;61.45;101093.14;106435;1273;22637;-48
2023/04/30 10:23:50;;;;;;;3.00;2.70;;;;;;;13.23;61.36;101096.33;106714;1273;24265;-50
2023/04/30 10:26:18;;;;;;;3.20;2.50;;;;;;;13.21;61.38;101089.95;106761;1272;25483;-49
2023/04/30 10:28:45;;;;;;;6.70;2.90;;;;;;;13.19;61.32;101094.20;106676;1276;25599;-49
2023/04/30 10:31:13;;;;;;;3.00;2.60;;;;;;;13.18;61.43;101093.69;106672;1274;22521;-48
2023/04/30 10:33:52;;;;;;;2.80;2.30;;;;;;;13.21;61.67;101099.86;106596;1274;24224;-48
2023/04/30 10:36:32;;;;;;;3.80;2.60;;;;;;;13.22;61.27;101100.19;106759;1276;22576;-50
2023/04/30 10:38:59;;;;;;;2.80;2.40;;;;;;;13.21;61.45;101104.58;106760;1273;24304;-47
2023/04/30 10:41:28;;;;;;;2.80;2.60;;;;;;;13.23;61.74;101097.39;106704;1274;22541;-49
2023/04/30 10:43:57;;;;;;;2.90;2.60;;;;;;;13.25;61.70;101099.07;107203;1261;22990;-47
2023/04/30 10:46:27;;;;;;;4.10;2.70;;;;;;;13.26;61.83;101096.95;107274;1269;22787;-49
2023/04/30 10:48:55;;;;;;;3.20;2.50;;;;;;;13.28;61.73;101101.62;106898;1273;22520;-48
2023/04/30 10:51:22;;;;;;;2.70;2.10;;;;;;;13.28;62.05;101102.84;106956;1267;24224;-48
2023/04/30 10:53:50;;;;;;;3.20;2.20;;;;;;;13.30;62.20;101105.04;107100;1270;22521;-48
2023/04/30 10:56:31;;;;;;;3.00;2.70;;;;;;;13.31;62.31;101106.56;107245;1272;24252;-50
2023/04/30 10:59:01;;;;;;;5.60;3.50;;;;;;;13.34;62.53;101106.33;106969;1269;22526;-47
2023/04/30 11:01:28;;;;;;;3.20;2.80;;;;;;;13.37;63.04;101103.43;107050;1267;25220;-48
2023/04/30 11:04:06;;;;;;;2.40;2.20;;;;;;;13.41;62.25;101099.66;106994;1272;22522;-48
2023/04/30 11:06:51;;;;;;;2.90;2.30;;;;;;;13.43;61.66;101098.04;107108;1266;23162;-47
2023/04/30 11:09:19;;;;;;;3.70;2.70;;;;;;;13.44;61.10;101094.02;107227;1266;22928;-48
2023/04/30 11:11:49;;;;;;;4.60;2.90;;;;;;;13.46;60.92;101094.48;107205;1266;22513;-48
2023/04/30 11:14:20;;;;;;;4.70;2.80;;;;;;;13.50;61.01;101099.06;107196;1270;25503;-48
2023/04/30 11:16:52;;;;;;;3.30;2.70;;;;;;;13.53;60.95;101097.23;106770;1275;22546;-48
2023/04/30 11:19:19;;;;;;;2.70;2.10;;;;;;;13.55;61.01;101094.73;107288;1263;22524;-49
2023/04/30 11:22:02;;;;;;;2.20;1.90;;;;;;;13.57;61.09;101101.48;107302;1263;25255;-48
2023/04/30 11:25:04;;;;;;;2.80;2.40;;;;;;;13.62;60.67;101097.14;107274;1269;22525;-48
2023/04/30 11:27:33;;;;;;;3.00;2.10;;;;;;;13.60;60.46;101098.05;107539;1267;22517;-48
2023/04/30 11:30:01;;;;;;;3.90;2.10;;;;;;;13.60;60.37;101096.67;107393;1263;22526;-47
2023/04/30 11:32:35;;;;;;;2.60;2.40;;;;;;;13.61;60.41;101097.01;107051;1269;22511;-49
2023/04/30 11:35:03;;;;;;;5.30;2.50;;;;;;;13.61;60.30;101098.57;107273;1267;22546;-50